Mogna, Argentina
Current Conditions -  °F | °C
As of 5:00 PM on Sunday 21 Dec 2014 (Local Time) from SAME Reporting Station
Scattered Clouds Scattered Clouds  
Wind Chill: 66°   Ceiling: Unl
Heat Index: 66°   Visibility: 6mi
Dew Point: 28°   Wind: 6mph
Humidity: 24%   Direction: 360°N
Pressure: 29.91"   Gusts: NA
Location:  30.69°S, 68.36°W
Report Text: SAME 212000Z 36005KT 9999 SCT045 SCT100 19/M02 Q1013
Loading
Personal Weather Stations






























Interactive Weather Map New forecast layout! Learn more

10-Day Weather Forecast

Advertisements
Track Severe Weather on mobile